createdAt,value
2023-02-05T00:00:39.481Z,103442.25
2023-02-05T00:03:06.022Z,103438.78
2023-02-05T00:05:33.230Z,103429.22
2023-02-05T00:07:59.864Z,103432.66
2023-02-05T00:10:26.320Z,103429.22
2023-02-05T00:12:52.845Z,103425.75
2023-02-05T00:15:19.417Z,103427.50
2023-02-05T00:17:45.875Z,103419.72
2023-02-05T00:20:12.424Z,103413.72
2023-02-05T00:22:38.928Z,103409.41
2023-02-05T00:25:05.909Z,103401.63
2023-02-05T00:27:33.819Z,103401.56
2023-02-05T00:30:00.334Z,103398.97
2023-02-05T00:32:26.802Z,103400.69
2023-02-05T00:34:53.276Z,103395.50
2023-02-05T00:37:19.900Z,103395.50
2023-02-05T00:39:46.353Z,103382.53
2023-02-05T00:42:12.928Z,103371.31
2023-02-05T00:44:39.418Z,103373.88
2023-02-05T00:47:05.939Z,103373.00
2023-02-05T00:49:32.412Z,103358.34
2023-02-05T00:51:58.974Z,103352.28
2023-02-05T00:54:25.458Z,103355.75
2023-02-05T00:56:52.018Z,103353.13
2023-02-05T00:59:18.485Z,103355.72
2023-02-05T01:01:44.984Z,103356.56
2023-02-05T01:04:11.486Z,103355.69
2023-02-05T01:06:37.969Z,103351.38
2023-02-05T01:09:04.437Z,103335.00
2023-02-05T01:11:30.984Z,103333.22
2023-02-05T01:13:57.449Z,103329.78
2023-02-05T01:16:24.005Z,103321.16
2023-02-05T01:18:50.597Z,103321.16
2023-02-05T01:21:17.093Z,103337.50
2023-02-05T01:23:44.104Z,103336.63
2023-02-05T01:26:10.568Z,103340.97
2023-02-05T01:28:37.058Z,103329.78
2023-02-05T01:31:03.780Z,103334.13
2023-02-05T01:33:30.334Z,103333.28
2023-02-05T01:35:57.171Z,103328.09
2023-02-05T01:38:23.668Z,103333.22
2023-02-05T01:40:50.188Z,103338.38
2023-02-05T01:43:18.204Z,103334.91
2023-02-05T01:45:55.346Z,103327.97
2023-02-05T01:48:27.995Z,103336.56
2023-02-05T01:50:59.523Z,103334.00
2023-02-05T01:53:31.600Z,103326.25
2023-02-05T01:56:01.469Z,103335.78
2023-02-05T01:58:32.082Z,103327.09
2023-02-05T02:00:58.650Z,103319.34
2023-02-05T02:03:30.445Z,103327.94
2023-02-05T02:05:57.636Z,103331.38
2023-02-05T02:08:24.686Z,103339.16
2023-02-05T02:10:53.577Z,103340.00
2023-02-05T02:13:22.159Z,103340.06
2023-02-05T02:15:50.588Z,103344.38
2023-02-05T02:18:28.748Z,103340.09
2023-02-05T02:21:33.064Z,103345.25
2023-02-05T02:24:21.549Z,103340.09
2023-02-05T02:27:16.132Z,103350.50
2023-02-05T02:29:54.058Z,103347.94
2023-02-05T02:32:41.203Z,103350.50
2023-02-05T02:35:22.604Z,103335.84
2023-02-05T02:38:00.909Z,103335.88
2023-02-05T02:40:36.188Z,103330.69
2023-02-05T02:43:13.522Z,103335.88
2023-02-05T02:45:49.656Z,103324.66
2023-02-05T02:48:19.392Z,103329.84
2023-02-05T02:50:49.041Z,103322.09
2023-02-05T02:53:19.242Z,103316.06
2023-02-05T02:55:49.143Z,103326.41
2023-02-05T02:58:21.389Z,103321.25
2023-02-05T03:00:49.132Z,103311.78
2023-02-05T03:03:20.769Z,103312.69
2023-02-05T03:05:50.202Z,103304.09
2023-02-05T03:08:24.652Z,103298.91
2023-02-05T03:10:59.172Z,103290.28
2023-02-05T03:13:25.712Z,103291.19
2023-02-05T03:15:52.295Z,103282.53
2023-02-05T03:18:19.873Z,103267.03
2023-02-05T03:21:12.589Z,103264.44
2023-02-05T03:23:39.197Z,103286.84
2023-02-05T03:26:05.710Z,103278.25
2023-02-05T03:28:32.203Z,103277.38
2023-02-05T03:31:16.530Z,103279.09
2023-02-05T03:34:01.188Z,103273.94
2023-02-05T03:36:48.791Z,103276.59
2023-02-05T03:39:26.516Z,103267.97
2023-02-05T03:41:59.288Z,103269.72
2023-02-05T03:45:00.354Z,103260.22
2023-02-05T03:47:35.046Z,103257.63
2023-02-05T03:50:10.930Z,103242.13
2023-02-05T03:52:43.991Z,103250.75
2023-02-05T03:55:22.927Z,103261.09
2023-02-05T03:58:11.453Z,103265.41
2023-02-05T04:00:38.738Z,103267.06
2023-02-05T04:03:05.334Z,103273.09
2023-02-05T04:05:32.519Z,103277.38
2023-02-05T04:07:59.202Z,103278.22
2023-02-05T04:10:25.669Z,103273.94
2023-02-05T04:12:52.171Z,103279.03
2023-02-05T04:15:18.659Z,103285.94
2023-02-05T04:17:45.112Z,103292.03
2023-02-05T04:20:11.961Z,103297.22
2023-02-05T04:22:38.483Z,103297.19
2023-02-05T04:25:05.237Z,103286.88
2023-02-05T04:27:31.714Z,103278.25
2023-02-05T04:29:58.625Z,103298.06
2023-02-05T04:32:25.173Z,103303.22
2023-02-05T04:34:51.677Z,103303.22
2023-02-05T04:37:18.270Z,103295.41
2023-02-05T04:39:44.761Z,103286.78
2023-02-05T04:42:11.262Z,103286.78
2023-02-05T04:44:37.776Z,103286.75
2023-02-05T04:47:04.339Z,103286.75
2023-02-05T04:49:33.065Z,103283.34
2023-02-05T04:52:00.094Z,103282.53
2023-02-05T04:54:28.337Z,103280.81
2023-02-05T04:56:54.806Z,103272.22
2023-02-05T04:59:21.310Z,103277.38
2023-02-05T05:01:47.784Z,103273.06
2023-02-05T05:04:14.289Z,103280.84
2023-02-05T05:06:40.764Z,103289.44
2023-02-05T05:09:07.234Z,103290.28
2023-02-05T05:11:34.158Z,103286.84
2023-02-05T05:14:00.599Z,103286.84
2023-02-05T05:16:27.306Z,103283.41
2023-02-05T05:18:53.889Z,103286.00
2023-02-05T05:21:20.394Z,103283.47
2023-02-05T05:23:46.891Z,103273.94
2023-02-05T05:26:13.512Z,103274.81
2023-02-05T05:28:40.270Z,103265.34
2023-02-05T05:31:13.186Z,103258.44
2023-02-05T05:33:40.176Z,103260.16
2023-02-05T05:36:07.474Z,103260.16
2023-02-05T05:38:34.048Z,103253.28
2023-02-05T05:41:19.385Z,103258.44
2023-02-05T05:43:48.505Z,103261.84
2023-02-05T05:46:22.006Z,103254.97
2023-02-05T05:48:53.728Z,103249.75
2023-02-05T05:51:20.749Z,103252.38
2023-02-05T05:53:47.655Z,103255.84
2023-02-05T05:56:14.618Z,103254.97
2023-02-05T05:58:42.106Z,103251.56
2023-02-05T06:01:09.402Z,103248.06
2023-02-05T06:03:36.268Z,103248.94
2023-02-05T06:06:08.193Z,103252.38
2023-02-05T06:08:35.749Z,103252.38
2023-02-05T06:11:02.258Z,103249.75
2023-02-05T06:13:28.770Z,103247.13
2023-02-05T06:15:56.192Z,103259.22
2023-02-05T06:18:23.988Z,103253.19
2023-02-05T06:20:50.860Z,103239.41
2023-02-05T06:23:17.647Z,103251.47
2023-02-05T06:25:46.994Z,103248.88
2023-02-05T06:28:14.000Z,103252.41
2023-02-05T06:30:40.512Z,103244.59
2023-02-05T06:33:07.078Z,103249.81
2023-02-05T06:35:33.905Z,103241.19
2023-02-05T06:38:00.578Z,103228.28
2023-02-05T06:40:28.183Z,103241.22
2023-02-05T06:42:55.343Z,103236.03
2023-02-05T06:45:22.305Z,103233.50
2023-02-05T06:47:49.040Z,103228.28
2023-02-05T06:50:15.966Z,103238.63
2023-02-05T06:52:42.629Z,103226.56
2023-02-05T06:55:09.178Z,103230.84
2023-02-05T06:57:35.692Z,103229.06
2023-02-05T07:00:02.173Z,103230.81
2023-02-05T07:02:29.230Z,103233.38
2023-02-05T07:04:55.777Z,103235.97
2023-02-05T07:07:22.467Z,103235.09
2023-02-05T07:09:51.240Z,103235.09
2023-02-05T07:12:17.828Z,103231.66
2023-02-05T07:14:44.492Z,103236.88
2023-02-05T07:17:10.992Z,103237.66
2023-02-05T07:19:38.129Z,103233.28
2023-02-05T07:22:05.266Z,103234.94
2023-02-05T07:24:32.284Z,103240.09
2023-02-05T07:26:58.764Z,103236.72
2023-02-05T07:29:25.360Z,103233.22
2023-02-05T07:31:52.506Z,103226.38
2023-02-05T07:34:19.454Z,103229.81
2023-02-05T07:36:45.932Z,103227.25
2023-02-05T07:39:12.441Z,103224.69
2023-02-05T07:41:38.988Z,103227.25
2023-02-05T07:44:05.951Z,103229.06
2023-02-05T07:46:34.946Z,103231.63
2023-02-05T07:49:01.659Z,103231.66
2023-02-05T07:51:28.319Z,103234.28
2023-02-05T07:53:55.565Z,103239.50
2023-02-05T07:56:22.461Z,103231.72
2023-02-05T07:58:49.286Z,103239.41
2023-02-05T08:01:15.852Z,103234.22
2023-02-05T08:03:42.455Z,103242.69
2023-02-05T08:06:14.020Z,103242.66
2023-02-05T08:08:40.567Z,103233.09
2023-02-05T08:11:07.862Z,103248.53
2023-02-05T08:13:34.469Z,103249.47
2023-02-05T08:16:05.965Z,103266.63
2023-02-05T08:18:32.594Z,103269.06
2023-02-05T08:20:59.368Z,103279.19
2023-02-05T08:23:26.177Z,103294.50
2023-02-05T08:25:57.104Z,103287.44
2023-02-05T08:28:28.022Z,103301.16
2023-02-05T08:30:56.598Z,103290.75
2023-02-05T08:33:24.091Z,103311.22
2023-02-05T08:35:50.795Z,103307.78
2023-02-05T08:38:17.674Z,103310.34
2023-02-05T08:40:44.188Z,103313.69
2023-02-05T08:43:10.864Z,103321.34
2023-02-05T08:45:37.955Z,103305.06
2023-02-05T08:48:04.676Z,103318.81
2023-02-05T08:50:31.505Z,103301.53
2023-02-05T08:52:58.016Z,103308.41
2023-02-05T08:55:24.704Z,103315.28
2023-02-05T08:57:51.505Z,103316.25
2023-02-05T09:00:18.361Z,103299.91
2023-02-05T09:02:45.428Z,103314.44
2023-02-05T09:05:11.993Z,103307.56
2023-02-05T09:07:39.788Z,103305.00
2023-02-05T09:10:09.060Z,103313.69
2023-02-05T09:12:35.669Z,103309.38
2023-02-05T09:15:02.200Z,103319.59
2023-02-05T09:17:28.807Z,103325.63
2023-02-05T09:19:55.480Z,103335.06
2023-02-05T09:22:21.995Z,103340.97
2023-02-05T09:24:48.485Z,103335.03
2023-02-05T09:27:15.096Z,103335.00
2023-02-05T09:29:41.913Z,103332.47
2023-02-05T09:32:08.515Z,103321.31
2023-02-05T09:34:35.015Z,103336.84
2023-02-05T09:37:01.568Z,103328.22
2023-02-05T09:40:12.023Z,103345.41
2023-02-05T09:42:39.986Z,103335.06
2023-02-05T09:45:16.717Z,103333.25
2023-02-05T09:47:59.438Z,103339.38
2023-02-05T09:50:29.900Z,103346.22
2023-02-05T09:53:11.874Z,103341.09
2023-02-05T09:55:42.560Z,103341.34
2023-02-05T09:58:16.360Z,103337.88
2023-02-05T10:00:49.987Z,103325.94
2023-02-05T10:03:29.863Z,103347.34
2023-02-05T10:06:12.882Z,103346.56
2023-02-05T10:08:58.452Z,103342.31
2023-02-05T10:11:48.662Z,103351.56
2023-02-05T10:14:27.749Z,103344.69
2023-02-05T10:16:54.153Z,103332.59
2023-02-05T10:19:43.578Z,103332.63
2023-02-05T10:22:21.157Z,103323.25
2023-02-05T10:24:54.481Z,103341.38
2023-02-05T10:27:23.186Z,103342.34
2023-02-05T10:30:14.318Z,103326.91
2023-02-05T10:33:00.434Z,103330.41
2023-02-05T10:35:51.590Z,103333.03
2023-02-05T10:38:25.669Z,103308.84
2023-02-05T10:41:00.377Z,103316.63
2023-02-05T10:43:34.426Z,103314.13
2023-02-05T10:46:01.933Z,103320.19
2023-02-05T10:48:45.397Z,103317.50
2023-02-05T10:51:16.670Z,103309.84
2023-02-05T10:53:43.845Z,103321.91
2023-02-05T10:56:18.635Z,103324.50
2023-02-05T10:58:55.482Z,103308.97
2023-02-05T11:01:38.665Z,103324.50
2023-02-05T11:04:11.236Z,103318.47
2023-02-05T11:06:41.977Z,103320.13
2023-02-05T11:09:23.717Z,103320.19
2023-02-05T11:11:56.014Z,103323.59
2023-02-05T11:14:31.028Z,103342.50
2023-02-05T11:16:58.209Z,103322.69
2023-02-05T11:19:28.926Z,103320.19
2023-02-05T11:21:58.089Z,103337.47
2023-02-05T11:24:36.193Z,103345.06
2023-02-05T11:27:27.849Z,103314.94
2023-02-05T11:29:56.964Z,103323.63
2023-02-05T11:32:35.143Z,103311.59
2023-02-05T11:35:23.455Z,103302.22
2023-02-05T11:38:01.437Z,103318.59
2023-02-05T11:40:31.467Z,103321.09
2023-02-05T11:43:02.659Z,103327.13
2023-02-05T11:45:31.039Z,103328.91
2023-02-05T11:48:01.024Z,103337.56
2023-02-05T11:50:30.384Z,103350.44
2023-02-05T11:53:08.186Z,103338.53
2023-02-05T11:55:36.237Z,103353.22
2023-02-05T11:58:06.305Z,103356.63
2023-02-05T12:00:33.646Z,103348.94
2023-02-05T12:03:07.661Z,103346.38
2023-02-05T12:05:45.874Z,103354.13
2023-02-05T12:08:34.984Z,103359.28
2023-02-05T12:11:12.516Z,103346.38
2023-02-05T12:13:54.094Z,103362.69
2023-02-05T12:16:32.813Z,103345.41
2023-02-05T12:19:02.527Z,103344.56
2023-02-05T12:21:50.957Z,103338.53
2023-02-05T12:24:23.505Z,103338.50
2023-02-05T12:26:57.924Z,103327.41
2023-02-05T12:30:03.951Z,103343.75
2023-02-05T12:32:47.362Z,103337.78
2023-02-05T12:35:28.935Z,103348.06
2023-02-05T12:38:27.300Z,103372.97
2023-02-05T12:41:26.676Z,103367.00
2023-02-05T12:44:02.161Z,103379.06
2023-02-05T12:47:01.533Z,103373.94
2023-02-05T12:49:51.457Z,103381.53
2023-02-05T12:52:35.375Z,103403.06
2023-02-05T12:55:12.375Z,103394.47
2023-02-05T12:57:44.377Z,103386.78
2023-02-05T13:00:19.686Z,103391.06
2023-02-05T13:03:20.215Z,103397.97
2023-02-05T13:06:03.944Z,103394.56
2023-02-05T13:08:42.722Z,103387.66
2023-02-05T13:11:18.304Z,103410.03
2023-02-05T13:14:03.741Z,103393.72
2023-02-05T13:16:38.056Z,103416.19
2023-02-05T13:19:22.295Z,103384.38
2023-02-05T13:22:08.870Z,103391.25
2023-02-05T13:25:04.511Z,103381.88
2023-02-05T13:27:59.058Z,103387.13
2023-02-05T13:30:36.740Z,103402.63
2023-02-05T13:33:06.500Z,103405.25
2023-02-05T13:35:43.751Z,103406.09
2023-02-05T13:38:25.484Z,103423.41
2023-02-05T13:41:03.020Z,103423.44
2023-02-05T13:43:54.461Z,103427.66
2023-02-05T13:46:49.062Z,103422.47
2023-02-05T13:49:30.266Z,103449.28
2023-02-05T13:52:12.117Z,103447.56
2023-02-05T13:54:38.585Z,103454.44
2023-02-05T13:57:37.666Z,103452.81
2023-02-05T14:00:08.910Z,103458.84
2023-02-05T14:02:45.793Z,103453.66
2023-02-05T14:05:14.008Z,103453.59
2023-02-05T14:07:47.689Z,103462.38
2023-02-05T14:10:30.267Z,103466.66
2023-02-05T14:13:22.884Z,103488.09
2023-02-05T14:15:49.987Z,103469.06
2023-02-05T14:18:41.821Z,103475.13
2023-02-05T14:21:46.711Z,103474.28
2023-02-05T14:24:49.585Z,103480.34
2023-02-05T14:27:38.661Z,103480.41
2023-02-05T14:30:30.449Z,103475.22
2023-02-05T14:33:02.680Z,103475.31
2023-02-05T14:35:40.301Z,103505.38
2023-02-05T14:38:28.979Z,103472.63
2023-02-05T14:41:05.822Z,103481.22
2023-02-05T14:43:36.046Z,103496.66
2023-02-05T14:46:07.301Z,103486.28
2023-02-05T14:48:46.809Z,103503.59
2023-02-05T14:51:54.657Z,103498.44
2023-02-05T14:54:24.103Z,103493.28
2023-02-05T14:56:54.112Z,103497.69
2023-02-05T14:59:32.224Z,103503.72
2023-02-05T15:02:00.060Z,103503.78
2023-02-05T15:04:40.275Z,103502.09
2023-02-05T15:07:18.469Z,103497.81
2023-02-05T15:09:51.978Z,103496.09
2023-02-05T15:12:42.718Z,103509.84
2023-02-05T15:15:28.753Z,103495.16
2023-02-05T15:18:00.372Z,103505.50
2023-02-05T15:20:32.542Z,103506.31
2023-02-05T15:23:18.404Z,103514.88
2023-02-05T15:25:56.120Z,103505.44
2023-02-05T15:28:36.710Z,103513.19
2023-02-05T15:31:16.468Z,103522.59
2023-02-05T15:34:09.673Z,103522.59
2023-02-05T15:36:45.871Z,103527.00
2023-02-05T15:39:34.508Z,103524.44
2023-02-05T15:42:04.103Z,103534.81
2023-02-05T15:44:33.987Z,103536.56
2023-02-05T15:47:03.757Z,103541.75
2023-02-05T15:49:36.100Z,103547.78
2023-02-05T15:52:03.541Z,103552.97
2023-02-05T15:54:33.694Z,103558.16
2023-02-05T15:57:00.374Z,103560.72
2023-02-05T15:59:29.337Z,103565.91
2023-02-05T16:02:18.081Z,103559.00
2023-02-05T16:04:45.434Z,103562.47
2023-02-05T16:07:24.408Z,103562.47
2023-02-05T16:09:54.445Z,103569.38
2023-02-05T16:12:21.379Z,103569.38
2023-02-05T16:15:07.701Z,103569.34
2023-02-05T16:17:42.309Z,103569.34
2023-02-05T16:20:21.432Z,103571.91
2023-02-05T16:22:56.921Z,103582.28
2023-02-05T16:25:52.156Z,103567.50
2023-02-05T16:28:24.649Z,103570.03
2023-02-05T16:30:55.566Z,103575.09
2023-02-05T16:33:32.363Z,103584.69
2023-02-05T16:36:02.081Z,103574.34
2023-02-05T16:38:29.262Z,103583.72
2023-02-05T16:40:59.019Z,103588.91
2023-02-05T16:43:25.462Z,103606.09
2023-02-05T16:46:15.703Z,103598.34
2023-02-05T16:48:45.374Z,103624.94
2023-02-05T16:51:52.284Z,103615.47
2023-02-05T16:54:18.852Z,103615.44
2023-02-05T16:56:58.849Z,103627.38
2023-02-05T16:59:30.665Z,103637.63
2023-02-05T17:01:59.498Z,103650.59
2023-02-05T17:04:34.938Z,103646.31
2023-02-05T17:07:03.578Z,103647.97
2023-02-05T17:09:39.096Z,103650.53
2023-02-05T17:12:33.591Z,103662.56
2023-02-05T17:15:02.965Z,103667.78
2023-02-05T17:17:31.427Z,103665.16
2023-02-05T17:20:17.982Z,103665.97
2023-02-05T17:23:05.503Z,103671.19
2023-02-05T17:26:01.490Z,103663.34
2023-02-05T17:28:29.889Z,103667.63
2023-02-05T17:31:00.265Z,103666.69
2023-02-05T17:33:28.848Z,103670.19
2023-02-05T17:35:55.718Z,103673.63
2023-02-05T17:38:23.573Z,103689.13
2023-02-05T17:40:50.424Z,103688.25
2023-02-05T17:43:16.972Z,103680.47
2023-02-05T17:45:44.480Z,103678.75
2023-02-05T17:48:11.625Z,103683.06
2023-02-05T17:50:38.449Z,103679.63
2023-02-05T17:53:05.029Z,103677.91
2023-02-05T17:55:32.130Z,103679.56
2023-02-05T17:57:59.214Z,103688.97
2023-02-05T18:00:28.263Z,103693.19
2023-02-05T18:02:55.015Z,103693.97
2023-02-05T18:05:22.974Z,103699.03
2023-02-05T18:07:53.099Z,103688.66
2023-02-05T18:10:23.990Z,103711.91
2023-02-05T18:12:51.352Z,103707.59
2023-02-05T18:15:17.934Z,103717.06
2023-02-05T18:17:44.647Z,103708.41
2023-02-05T18:20:13.014Z,103712.66
2023-02-05T18:22:39.738Z,103711.78
2023-02-05T18:25:06.829Z,103707.44
2023-02-05T18:27:33.875Z,103703.13
2023-02-05T18:30:00.404Z,103715.91
2023-02-05T18:32:27.061Z,103714.22
2023-02-05T18:34:54.020Z,103727.16
2023-02-05T18:37:20.539Z,103710.72
2023-02-05T18:39:47.976Z,103718.47
2023-02-05T18:42:14.696Z,103715.84
2023-02-05T18:44:41.334Z,103734.66
2023-02-05T18:47:08.486Z,103729.50
2023-02-05T18:49:35.155Z,103726.03
2023-02-05T18:52:05.710Z,103735.41
2023-02-05T18:54:32.177Z,103741.44
2023-02-05T18:56:58.830Z,103748.31
2023-02-05T18:59:25.906Z,103754.34
2023-02-05T19:01:53.046Z,103754.25
2023-02-05T19:04:20.811Z,103761.00
2023-02-05T19:06:52.388Z,103761.81
2023-02-05T19:09:24.927Z,103755.78
2023-02-05T19:11:52.474Z,103762.66
2023-02-05T19:14:20.748Z,103766.91
2023-02-05T19:16:48.580Z,103766.81
2023-02-05T19:19:20.071Z,103776.25
2023-02-05T19:21:49.046Z,103780.44
2023-02-05T19:24:17.334Z,103785.66
2023-02-05T19:26:44.261Z,103786.41
2023-02-05T19:29:16.551Z,103794.16
2023-02-05T19:31:43.981Z,103801.16
2023-02-05T19:34:11.468Z,103803.59
2023-02-05T19:36:38.145Z,103813.88
2023-02-05T19:39:06.892Z,103818.22
2023-02-05T19:41:35.100Z,103826.78
2023-02-05T19:44:04.642Z,103821.56
2023-02-05T19:46:42.128Z,103819.06
2023-02-05T19:49:13.761Z,103824.97
2023-02-05T19:51:40.395Z,103824.13
2023-02-05T19:54:08.075Z,103819.81
2023-02-05T19:56:37.908Z,103823.19
2023-02-05T19:59:06.369Z,103820.69
2023-02-05T20:01:36.756Z,103828.28
2023-02-05T20:04:10.731Z,103822.09
2023-02-05T20:06:37.905Z,103820.41
2023-02-05T20:09:10.344Z,103826.28
2023-02-05T20:11:41.684Z,103832.09
2023-02-05T20:14:09.266Z,103841.44
2023-02-05T20:16:36.253Z,103829.34
2023-02-05T20:19:03.068Z,103842.28
2023-02-05T20:21:30.086Z,103852.53
2023-02-05T20:23:56.881Z,103854.25
2023-02-05T20:26:24.550Z,103852.53
2023-02-05T20:29:12.288Z,103844.66
2023-02-05T20:31:44.489Z,103848.09
2023-02-05T20:34:17.979Z,103842.03
2023-02-05T20:36:46.876Z,103843.69
2023-02-05T20:39:13.492Z,103846.31
2023-02-05T20:41:40.190Z,103836.84
2023-02-05T20:44:06.660Z,103835.78
2023-02-05T20:46:33.231Z,103835.81
2023-02-05T20:49:00.577Z,103845.81
2023-02-05T20:51:27.710Z,103841.50
2023-02-05T20:53:58.623Z,103851.72
2023-02-05T20:56:27.236Z,103853.22
2023-02-05T20:58:54.634Z,103846.31
2023-02-05T21:01:24.157Z,103846.31
2023-02-05T21:03:57.778Z,103839.41
2023-02-05T21:06:25.230Z,103847.22
2023-02-05T21:08:52.974Z,103848.06
2023-02-05T21:11:20.832Z,103857.53
2023-02-05T21:13:49.361Z,103852.28
2023-02-05T21:16:17.529Z,103847.19
2023-02-05T21:18:45.626Z,103850.53
2023-02-05T21:21:15.141Z,103862.59
2023-02-05T21:23:44.173Z,103868.56
2023-02-05T21:26:22.501Z,103871.94
2023-02-05T21:28:52.328Z,103874.41
2023-02-05T21:31:18.916Z,103874.47
2023-02-05T21:33:45.672Z,103877.78
2023-02-05T21:36:12.580Z,103875.00
2023-02-05T21:38:41.428Z,103874.94
2023-02-05T21:41:18.479Z,103880.94
2023-02-05T21:43:53.545Z,103877.38
2023-02-05T21:46:24.187Z,103876.31
2023-02-05T21:48:53.031Z,103882.31
2023-02-05T21:51:20.837Z,103884.78
2023-02-05T21:53:47.960Z,103895.16
2023-02-05T21:56:16.610Z,103905.31
2023-02-05T21:58:43.339Z,103922.34
2023-02-05T22:01:25.294Z,103917.94
2023-02-05T22:03:57.422Z,103925.66
2023-02-05T22:06:25.648Z,103918.69
2023-02-05T22:08:52.678Z,103920.31
2023-02-05T22:11:21.207Z,103912.50
2023-02-05T22:13:49.883Z,103921.06
2023-02-05T22:16:21.426Z,103923.63
2023-02-05T22:18:48.640Z,103918.56
2023-02-05T22:21:18.546Z,103929.66
2023-02-05T22:23:49.190Z,103927.09
2023-02-05T22:26:21.064Z,103929.69
2023-02-05T22:28:48.075Z,103928.00
2023-02-05T22:31:17.200Z,103934.66
2023-02-05T22:33:45.606Z,103933.09
2023-02-05T22:36:14.909Z,103934.66
2023-02-05T22:38:42.894Z,103931.25
2023-02-05T22:41:11.677Z,103927.66
2023-02-05T22:43:38.515Z,103924.06
2023-02-05T22:46:11.048Z,103930.03
2023-02-05T22:48:39.576Z,103924.88
2023-02-05T22:51:09.033Z,103929.91
2023-02-05T22:53:35.841Z,103940.94
2023-02-05T22:56:04.249Z,103939.88
2023-02-05T22:58:31.334Z,103937.28
2023-02-05T23:00:58.619Z,103958.59
2023-02-05T23:03:25.795Z,103946.41
2023-02-05T23:05:52.989Z,103941.25
2023-02-05T23:08:21.813Z,103948.84
2023-02-05T23:10:49.013Z,103942.19
2023-02-05T23:13:18.073Z,103943.72
2023-02-05T23:15:44.521Z,103939.34
2023-02-05T23:18:11.042Z,103944.44
2023-02-05T23:20:40.971Z,103953.69
2023-02-05T23:23:07.429Z,103950.34
2023-02-05T23:25:36.515Z,103958.78
2023-02-05T23:28:03.324Z,103959.66
2023-02-05T23:30:29.981Z,103959.72
2023-02-05T23:32:56.535Z,103950.28
2023-02-05T23:35:22.996Z,103947.59
2023-02-05T23:37:49.489Z,103946.59
2023-02-05T23:40:16.030Z,103945.75
2023-02-05T23:42:42.475Z,103945.72
2023-02-05T23:45:09.196Z,103947.59
2023-02-05T23:47:35.719Z,103950.94
2023-02-05T23:50:02.162Z,103958.63
2023-02-05T23:52:28.625Z,103966.13
2023-02-05T23:54:55.073Z,103971.25
2023-02-05T23:57:21.531Z,103969.50
2023-02-05T23:59:50.275Z,103975.25
